首页
METAR-TAF:

METAR-TAF

机场 :

Goldsboro / Seymour Johnson, 北卡罗来纳州, 美国

纬度: 35-20N, 经度: 077-58W, 海拔: 33米

当前天气观测

该预报发布于19分钟前的02:56 UTC
风速10节,风向西北
温度 18°C
湿度 45%
气压 1013 hPa
能見度: 16.1公里
多云层高于7000英尺

METAR: KGSB 170256Z AUTO 32010KT 10SM BKN070 18/06 A2992 RMK AO2 SLP135 T01830058 52028 $

时间: 23:15 (03:15 UTC)

预报

该预报发布于3小时和45分钟前的23:30 UTC
预报有效从15日的 23点(UTC)到 17日的 02点(UTC)
风速6节,风向
能见度10公里或以上
天空无云
短暂存在
从 16日的 11点(UTC)到 16日的 13点(UTC)
能見度: 6000
轻雾
成为
从 16日的 15点(UTC)到 16日的 16点(UTC)
风速12节,风向西南,有时为18节阵风
能见度10公里或以上
散云层高于3000英尺
散云层高于6000英尺
多云层高于14000英尺
成为
从 16日的 20点(UTC)到 16日的 21点(UTC)
风速15节,风向北转西北,有时为25节阵风
能見度: 9000
多云层高于3000英尺
阴天层高于6000英尺, 积雨云.
小阵雨, 附近有雷暴
短暂存在
从 16日的 21点(UTC)到 17日的 01点(UTC)
风速15节,风向北转西北,有时为30节阵风
能見度: 1804
散云层高于800英尺
多云层高于2500英尺, 积雨云.
雷暴, 小雨

TAF: KGSB 152330Z 1523/1702 08006KT 9999 SKC QNH2987INS TEMPO 1611/1613 6000 BR BECMG 1615/1616 22012G18KT 9999 SCT030 SCT060 BKN140 QNH2977INS BECMG 1620/1621 33015G25KT 9000 -SHRA VCTS BKN030 OVC060CB QNH2973INS TEMPO 1621/1701 34015G30KT 6000 -TSRA SCT008 BKN025CB TX28/1620Z TN16/1609Z LAST NO AMDS AFT 1523 NEXT 1804

超过4000个机场的气象观测和天气预报(METAR&TAF报告)。

可查询的气象台以黄色和红色小点在地图上表示。

将鼠标移到小点上方,可查看气象台名称。

然后点击查看天气观测和预报。

如需切换地图:点击带黑十字的绿色按钮放大地图;点击带横线的绿色按钮缩小地图;或者点击绿色箭头查看邻近地区的地图。


METAR-TAF: